Time;durP1;ratioP1;P1;durP2;ratioP2;P2;SDS_P1;SDS_P2;PMS_P1;PMS_P2;Temp;Humidity;BMP_temperature;BMP_pressure;BME280_temperature;BME280_humidity;BME280_pressure;Samples;Min_cycle;Max_cycle;Signal;HPM_P1;HPM_P2
2023/08/28 00:03:45;;;;;;;0.32;0.30;;;;;;;;;;10233102;28;20051;-86
2023/08/28 00:08:48;;;;;;;1.17;0.40;;;;;;;;;;10235505;28;20109;-86
2023/08/28 00:13:52;;;;;;;1.08;0.40;;;;;;;;;;10268207;28;20042;-87
2023/08/28 00:18:57;;;;;;;3.33;0.50;;;;;;;;;;10226604;28;20464;-86
2023/08/28 00:24:01;;;;;;;0.30;0.30;;;;;;;;;;10231479;28;20058;-86
2023/08/28 00:29:04;;;;;;;0.30;0.30;;;;;;;;;;10241342;28;20417;-86
2023/08/28 00:34:09;;;;;;;0.38;0.30;;;;;;;;;;10240071;28;20078;-85
2023/08/28 00:39:13;;;;;;;0.57;0.40;;;;;;;;;;10248246;28;20043;-87
2023/08/28 00:44:17;;;;;;;1.20;0.28;;;;;;;;;;10243444;28;20057;-86
2023/08/28 00:49:22;;;;;;;0.40;0.30;;;;;;;;;;10240699;28;20129;-87
2023/08/28 00:54:26;;;;;;;2.03;0.25;;;;;;;;;;10225778;28;20047;-87
2023/08/28 00:59:30;;;;;;;0.30;0.30;;;;;;;;;;10245236;28;20142;-87
2023/08/28 01:10:16;;;;;;;0.30;0.30;;;;;;;;;;10257547;23;20568;-88
2023/08/28 01:15:22;;;;;;;0.30;0.28;;;;;;;;;;10190925;29;20055;-87
2023/08/28 01:20:27;;;;;;;0.20;0.20;;;;;;;;;;10151170;29;20056;-88
2023/08/28 01:25:32;;;;;;;0.20;0.20;;;;;;;;;;10173001;29;20076;-87
2023/08/28 01:30:38;;;;;;;0.45;0.30;;;;;;;;;;10167103;29;20064;-87
2023/08/28 01:35:41;;;;;;;;;;;;;;;;;;10165431;29;20512;-87
2023/08/28 01:40:50;;;;;;;1.05;0.30;;;;;;;;;;10153327;29;19958;-87
2023/08/28 01:45:54;;;;;;;0.30;0.30;;;;;;;;;;10178862;29;20075;-86
2023/08/28 01:50:58;;;;;;;0.85;0.50;;;;;;;;;;10161359;29;20084;-86
2023/08/28 01:56:16;;;;;;;0.60;0.30;;;;;;;;;;10184323;29;20379;-86
2023/08/28 02:01:21;;;;;;;0.32;0.30;;;;;;;;;;10168215;29;20072;-87
2023/08/28 02:06:25;;;;;;;0.60;0.30;;;;;;;;;;10163404;29;20044;-86
2023/08/28 02:11:30;;;;;;;1.27;0.32;;;;;;;;;;10174614;29;20139;-85
2023/08/28 02:16:38;;;;;;;0.20;0.20;;;;;;;;;;10150055;29;20079;-85
2023/08/28 02:21:41;;;;;;;1.27;0.20;;;;;;;;;;10167637;29;20422;-85
2023/08/28 02:26:46;;;;;;;0.75;0.30;;;;;;;;;;10147698;29;20044;-85
2023/08/28 02:31:49;;;;;;;0.40;0.40;;;;;;;;;;10182677;29;20048;-85
2023/08/28 02:36:53;;;;;;;0.50;0.25;;;;;;;;;;10166996;29;20035;-85
2023/08/28 02:41:57;;;;;;;1.48;0.40;;;;;;;;;;10157814;29;20670;-85
2023/08/28 02:47:01;;;;;;;0.30;0.30;;;;;;;;;;10173603;29;20044;-85
2023/08/28 02:52:05;;;;;;;0.20;0.20;;;;;;;;;;10172868;29;20143;-85
2023/08/28 02:57:10;;;;;;;0.32;0.32;;;;;;;;;;10139286;29;20040;-85
2023/08/28 03:02:13;;;;;;;0.22;0.22;;;;;;;;;;10170535;29;20044;-85
2023/08/28 03:07:18;;;;;;;0.50;0.40;;;;;;;;;;10147779;29;20076;-85
2023/08/28 03:12:22;;;;;;;0.20;0.20;;;;;;;;;;10138899;29;20060;-85
2023/08/28 03:17:26;;;;;;;0.95;0.30;;;;;;;;;;10161705;29;20075;-83
2023/08/28 03:22:29;;;;;;;0.40;0.40;;;;;;;;;;10152447;29;20052;-86
2023/08/28 03:27:34;;;;;;;0.28;0.28;;;;;;;;;;10155185;29;20116;-85
2023/08/28 03:32:37;;;;;;;0.85;0.40;;;;;;;;;;10153527;29;20059;-85
2023/08/28 03:37:41;;;;;;;0.77;0.30;;;;;;;;;;10156326;29;20095;-85
2023/08/28 03:42:45;;;;;;;0.22;0.22;;;;;;;;;;10141722;29;20119;-85
2023/08/28 03:47:49;;;;;;;0.20;0.20;;;;;;;;;;10160781;29;20507;-85
2023/08/28 03:52:52;;;;;;;0.50;0.30;;;;;;;;;;10154837;29;20091;-85
2023/08/28 03:57:57;;;;;;;0.45;0.32;;;;;;;;;;10170260;29;20063;-85
2023/08/28 04:03:01;;;;;;;0.60;0.30;;;;;;;;;;10158563;29;20099;-85
2023/08/28 04:08:06;;;;;;;0.20;0.20;;;;;;;;;;10181980;29;20096;-85
2023/08/28 04:13:11;;;;;;;0.30;0.30;;;;;;;;;;10144018;29;20050;-84
2023/08/28 04:18:15;;;;;;;0.20;0.20;;;;;;;;;;10170707;29;20046;-88
2023/08/28 04:23:18;;;;;;;0.45;0.30;;;;;;;;;;10163797;29;20059;-87
2023/08/28 04:28:23;;;;;;;0.73;0.40;;;;;;;;;;10174115;29;20059;-88
2023/08/28 04:33:27;;;;;;;0.82;0.30;;;;;;;;;;10193875;29;20100;-88
2023/08/28 04:38:30;;;;;;;0.30;0.28;;;;;;;;;;10146424;29;20459;-82
2023/08/28 04:43:35;;;;;;;1.08;0.30;;;;;;;;;;10167676;29;20048;-82
2023/08/28 04:48:38;;;;;;;0.30;0.30;;;;;;;;;;10176386;29;20238;-82
2023/08/28 04:53:42;;;;;;;1.15;0.45;;;;;;;;;;10176118;29;20135;-82
2023/08/28 04:58:48;;;;;;;0.20;0.20;;;;;;;;;;10185009;29;20116;-83
2023/08/28 05:03:51;;;;;;;0.55;0.30;;;;;;;;;;10166347;29;20135;-82
2023/08/28 05:15:08;;;;;;;0.22;0.22;;;;;;;;;;10171372;29;20052;-86
2023/08/28 05:20:15;;;;;;;0.32;0.32;;;;;;;;;;10155543;29;20220;-87
2023/08/28 05:25:19;;;;;;;0.52;0.35;;;;;;;;;;10183543;29;20048;-88
2023/08/28 05:30:31;;;;;;;0.65;0.30;;;;;;;;;;10190885;29;20051;-87
2023/08/28 05:35:35;;;;;;;0.63;0.40;;;;;;;;;;10205082;29;20059;-87
2023/08/28 05:40:43;;;;;;;0.60;0.50;;;;;;;;;;10185969;29;20055;-87
2023/08/28 05:45:59;;;;;;;0.98;0.60;;;;;;;;;;10180847;29;20573;-89
2023/08/28 05:51:03;;;;;;;;;;;;;;;;;;10181637;29;20079;-88
2023/08/28 05:56:08;;;;;;;2.75;0.95;;;;;;;;;;10192620;29;19970;-87
2023/08/28 06:01:13;;;;;;;1.52;0.80;;;;;;;;;;10149640;29;20059;-87
2023/08/28 06:06:20;;;;;;;0.40;0.40;;;;;;;;;;10178338;29;20047;-86
2023/08/28 06:11:24;;;;;;;0.47;0.47;;;;;;;;;;10183342;29;20139;-88
2023/08/28 06:16:36;;;;;;;0.57;0.30;;;;;;;;;;10166422;29;20310;-87
2023/08/28 06:21:44;;;;;;;1.30;0.43;;;;;;;;;;10167836;29;20475;-86
2023/08/28 06:26:57;;;;;;;0.70;0.30;;;;;;;;;;10174110;29;20059;-86
2023/08/28 06:32:09;;;;;;;0.50;0.40;;;;;;;;;;10161631;29;20055;-86
2023/08/28 06:37:12;;;;;;;1.05;0.40;;;;;;;;;;10193724;29;20079;-86
2023/08/28 06:42:16;;;;;;;0.30;0.22;;;;;;;;;;10156741;29;20071;-87
2023/08/28 06:47:21;;;;;;;0.40;0.40;;;;;;;;;;10137320;29;20064;-87
2023/08/28 06:52:24;;;;;;;0.50;0.30;;;;;;;;;;10154862;29;20167;-86
2023/08/28 06:57:35;;;;;;;0.30;0.30;;;;;;;;;;10174629;29;20099;-87
2023/08/28 08:39:11;;;;;;;0.52;0.40;;;;;;;;;;9926399;29;20055;-89
2023/08/28 08:44:16;;;;;;;2.67;0.40;;;;;;;;;;9967981;29;20061;-90
2023/08/28 08:49:26;;;;;;;0.40;0.40;;;;;;;;;;9957641;29;20051;-90
2023/08/28 08:54:36;;;;;;;0.70;0.55;;;;;;;;;;9965687;29;20145;-89
2023/08/28 08:59:42;;;;;;;0.60;0.60;;;;;;;;;;9995654;29;20046;-90
2023/08/28 09:04:49;;;;;;;1.25;0.70;;;;;;;;;;9997751;29;20507;-89
2023/08/28 09:09:54;;;;;;;0.45;0.45;;;;;;;;;;10036243;29;20069;-89
2023/08/28 09:15:07;;;;;;;0.50;0.40;;;;;;;;;;10057019;29;20049;-88
2023/08/28 09:20:18;;;;;;;0.70;0.57;;;;;;;;;;10062404;29;20118;-90
2023/08/28 09:25:27;;;;;;;1.88;1.08;;;;;;;;;;10086436;29;20455;-89
2023/08/28 09:30:36;;;;;;;1.30;1.00;;;;;;;;;;10079561;29;20053;-88
2023/08/28 09:35:44;;;;;;;1.52;1.17;;;;;;;;;;10077111;29;20061;-89
2023/08/28 09:40:48;;;;;;;1.67;1.50;;;;;;;;;;10092228;29;20507;-89
2023/08/28 09:46:01;;;;;;;1.42;1.20;;;;;;;;;;10069573;29;20102;-89
2023/08/28 09:51:13;;;;;;;1.98;1.20;;;;;;;;;;10067925;29;20052;-88
2023/08/28 09:56:25;;;;;;;1.30;0.73;;;;;;;;;;10091895;29;20045;-89
2023/08/28 10:01:32;;;;;;;1.40;0.80;;;;;;;;;;10079675;29;20140;-90
2023/08/28 10:06:42;;;;;;;0.88;0.70;;;;;;;;;;10068033;29;20049;-88
2023/08/28 10:11:46;;;;;;;1.17;0.55;;;;;;;;;;10054490;29;20056;-88
2023/08/28 10:17:04;;;;;;;1.88;1.38;;;;;;;;;;10086898;29;20081;-88
2023/08/28 10:22:10;;;;;;;1.60;0.85;;;;;;;;;;10063256;29;20060;-88
2023/08/28 10:27:16;;;;;;;1.50;1.10;;;;;;;;;;10074547;29;20079;-88
2023/08/28 10:32:28;;;;;;;1.45;0.90;;;;;;;;;;10076493;29;20045;-88
2023/08/28 10:37:35;;;;;;;1.45;0.52;;;;;;;;;;10070747;29;20728;-90
2023/08/28 10:42:41;;;;;;;1.23;0.50;;;;;;;;;;10086624;29;20061;-88
2023/08/28 10:47:51;;;;;;;1.15;0.55;;;;;;;;;;10082450;29;20076;-89
2023/08/28 10:52:59;;;;;;;0.77;0.60;;;;;;;;;;10077357;29;20052;-90
2023/08/28 10:58:11;;;;;;;0.40;0.32;;;;;;;;;;10059999;29;20080;-90
2023/08/28 11:03:18;;;;;;;0.80;0.50;;;;;;;;;;10065289;29;20073;-89
2023/08/28 11:08:21;;;;;;;;;;;;;;;;;;10081391;29;20049;-90
2023/08/28 11:13:25;;;;;;;1.05;0.70;;;;;;;;;;10073267;29;19983;-88
2023/08/28 11:18:33;;;;;;;0.60;0.60;;;;;;;;;;10072417;29;20125;-88
2023/08/28 11:23:38;;;;;;;1.00;0.52;;;;;;;;;;10069772;29;20082;-88
2023/08/28 11:28:49;;;;;;;0.35;0.28;;;;;;;;;;10058345;29;20053;-88
2023/08/28 11:33:54;;;;;;;0.35;0.35;;;;;;;;;;10069852;29;20053;-91
2023/08/28 11:39:04;;;;;;;0.50;0.50;;;;;;;;;;10077222;29;20041;-88
2023/08/28 11:44:12;;;;;;;0.35;0.30;;;;;;;;;;10094281;29;20415;-90
2023/08/28 11:49:21;;;;;;;0.52;0.40;;;;;;;;;;10064491;29;20059;-88
2023/08/28 11:54:35;;;;;;;0.30;0.30;;;;;;;;;;10085592;29;20064;-88
2023/08/28 11:59:38;;;;;;;0.30;0.30;;;;;;;;;;10095641;29;20045;-89
2023/08/28 12:04:49;;;;;;;0.30;0.30;;;;;;;;;;10076906;29;20060;-87
2023/08/28 12:09:54;;;;;;;0.63;0.60;;;;;;;;;;10076941;29;20049;-89
2023/08/28 12:15:08;;;;;;;0.22;0.22;;;;;;;;;;10085231;29;20063;-89
2023/08/28 12:20:20;;;;;;;1.08;0.43;;;;;;;;;;10075255;29;20463;-89
2023/08/28 12:25:33;;;;;;;1.60;1.02;;;;;;;;;;10092609;29;20530;-87
2023/08/28 12:30:55;;;;;;;0.75;0.60;;;;;;;;;;10087189;29;20200;-88
2023/08/28 12:36:04;;;;;;;0.77;0.45;;;;;;;;;;10090575;29;20056;-88
2023/08/28 12:41:10;;;;;;;0.60;0.57;;;;;;;;;;10088683;29;20041;-88
2023/08/28 12:46:15;;;;;;;0.70;0.60;;;;;;;;;;10091155;29;20107;-88
2023/08/28 12:51:23;;;;;;;0.70;0.40;;;;;;;;;;10069312;29;20049;-86
2023/08/28 12:56:27;;;;;;;2.28;0.40;;;;;;;;;;10056453;29;20049;-86
2023/08/28 13:01:35;;;;;;;1.27;0.55;;;;;;;;;;10068026;29;20060;-86
2023/08/28 13:06:40;;;;;;;0.52;0.38;;;;;;;;;;10066642;29;20061;-87
2023/08/28 13:11:51;;;;;;;0.60;0.47;;;;;;;;;;10076191;29;20626;-86
2023/08/28 13:16:54;;;;;;;0.57;0.30;;;;;;;;;;10078402;29;20060;-87
2023/08/28 13:22:03;;;;;;;0.57;0.40;;;;;;;;;;10078849;29;20041;-86
2023/08/28 13:27:06;;;;;;;1.15;0.77;;;;;;;;;;10063848;29;20779;-87
2023/08/28 13:32:17;;;;;;;0.88;0.47;;;;;;;;;;10056449;29;20053;-86
2023/08/28 13:37:22;;;;;;;2.20;0.70;;;;;;;;;;10066520;29;20053;-87
2023/08/28 13:42:28;;;;;;;0.77;0.40;;;;;;;;;;10061595;29;20057;-86
2023/08/28 13:47:34;;;;;;;1.35;0.60;;;;;;;;;;10065704;29;20484;-87
2023/08/28 13:52:45;;;;;;;2.25;0.70;;;;;;;;;;10058035;29;20505;-86
2023/08/28 13:57:49;;;;;;;0.70;0.70;;;;;;;;;;10049462;29;20064;-87
2023/08/28 14:02:52;;;;;;;2.17;0.73;;;;;;;;;;10065696;29;20049;-87
2023/08/28 14:07:57;;;;;;;3.38;0.57;;;;;;;;;;10076937;29;20570;-86
2023/08/28 14:13:01;;;;;;;2.07;0.90;;;;;;;;;;10077361;29;20522;-86
2023/08/28 14:18:07;;;;;;;1.35;0.55;;;;;;;;;;10082078;29;20053;-87
2023/08/28 14:23:14;;;;;;;1.52;0.60;;;;;;;;;;10063651;29;20052;-86
2023/08/28 14:28:25;;;;;;;0.45;0.45;;;;;;;;;;10072068;29;20076;-87
2023/08/28 14:33:28;;;;;;;0.50;0.50;;;;;;;;;;10056204;29;20135;-86
2023/08/28 14:38:33;;;;;;;0.52;0.43;;;;;;;;;;10071757;29;20579;-86
2023/08/28 14:43:37;;;;;;;0.95;0.52;;;;;;;;;;10051858;29;20053;-86
2023/08/28 14:48:40;;;;;;;0.40;0.40;;;;;;;;;;10063162;29;20068;-87
2023/08/28 14:53:47;;;;;;;1.00;0.60;;;;;;;;;;10078223;29;20109;-86
2023/08/28 14:58:51;;;;;;;0.77;0.52;;;;;;;;;;10058589;29;20128;-86
2023/08/28 15:03:55;;;;;;;0.40;0.30;;;;;;;;;;10064603;29;20055;-86
2023/08/28 15:08:59;;;;;;;0.95;0.60;;;;;;;;;;10067525;29;20045;-86
2023/08/28 15:14:03;;;;;;;1.13;0.73;;;;;;;;;;10068487;29;20057;-86
2023/08/28 15:19:07;;;;;;;0.40;0.40;;;;;;;;;;10061067;29;20064;-86
2023/08/28 15:24:12;;;;;;;0.70;0.55;;;;;;;;;;10053791;29;20542;-86
2023/08/28 15:29:18;;;;;;;0.90;0.80;;;;;;;;;;10050108;29;20056;-86
2023/08/28 15:34:22;;;;;;;0.45;0.45;;;;;;;;;;10059938;29;20041;-86
2023/08/28 15:39:27;;;;;;;1.05;0.40;;;;;;;;;;10070630;29;20076;-86
2023/08/28 15:44:30;;;;;;;0.40;0.30;;;;;;;;;;10060850;29;20104;-86
2023/08/28 15:49:34;;;;;;;0.70;0.30;;;;;;;;;;10077249;29;20511;-86
2023/08/28 15:54:42;;;;;;;0.40;0.20;;;;;;;;;;10053122;29;20597;-86
2023/08/28 15:59:46;;;;;;;0.55;0.20;;;;;;;;;;10061619;29;20498;-86
2023/08/28 16:04:49;;;;;;;0.90;0.40;;;;;;;;;;10069481;29;20144;-86
2023/08/28 16:09:54;;;;;;;0.20;0.20;;;;;;;;;;10066554;29;20507;-86
2023/08/28 16:14:58;;;;;;;0.25;0.20;;;;;;;;;;10065800;29;20276;-86
2023/08/28 16:20:01;;;;;;;1.63;0.20;;;;;;;;;;10068028;29;20049;-86
2023/08/28 16:25:07;;;;;;;0.85;0.22;;;;;;;;;;10083830;29;20072;-88
2023/08/28 16:30:12;;;;;;;0.77;0.35;;;;;;;;;;10063506;29;20045;-88
2023/08/28 16:35:17;;;;;;;0.45;0.40;;;;;;;;;;10072877;29;20049;-88
2023/08/28 16:40:21;;;;;;;0.88;0.20;;;;;;;;;;10053444;29;20053;-88
2023/08/28 16:45:25;;;;;;;0.13;0.10;;;;;;;;;;10061443;29;20061;-88
2023/08/28 16:50:28;;;;;;;0.73;0.30;;;;;;;;;;10090630;29;20068;-88
2023/08/28 16:55:33;;;;;;;0.30;0.30;;;;;;;;;;10070926;29;20052;-88
2023/08/28 17:00:37;;;;;;;0.65;0.30;;;;;;;;;;10078868;29;20053;-88
2023/08/28 17:05:41;;;;;;;0.38;0.17;;;;;;;;;;10078467;29;20061;-88
2023/08/28 17:10:46;;;;;;;0.40;0.20;;;;;;;;;;10083517;29;20086;-88
2023/08/28 17:15:50;;;;;;;0.57;0.30;;;;;;;;;;10052790;29;20061;-88
2023/08/28 17:20:53;;;;;;;0.43;0.30;;;;;;;;;;10080332;29;20069;-87
2023/08/28 17:25:58;;;;;;;0.20;0.20;;;;;;;;;;10085000;29;20109;-90
2023/08/28 17:31:02;;;;;;;0.43;0.20;;;;;;;;;;10069595;29;20083;-89
2023/08/28 17:36:06;;;;;;;0.52;0.20;;;;;;;;;;10061977;29;20072;-88
2023/08/28 17:41:11;;;;;;;0.40;0.40;;;;;;;;;;10078570;29;20053;-89
2023/08/28 17:46:14;;;;;;;0.80;0.40;;;;;;;;;;10062614;29;20076;-88
2023/08/28 17:51:18;;;;;;;0.30;0.20;;;;;;;;;;10069327;29;20063;-88
2023/08/28 17:56:23;;;;;;;0.50;0.30;;;;;;;;;;10054543;29;20167;-88
2023/08/28 18:01:27;;;;;;;0.45;0.20;;;;;;;;;;10081098;29;20077;-88
2023/08/28 18:06:31;;;;;;;0.30;0.30;;;;;;;;;;10085946;29;20056;-88
2023/08/28 18:11:39;;;;;;;0.35;0.30;;;;;;;;;;10072318;29;20061;-88
2023/08/28 18:16:45;;;;;;;1.25;0.30;;;;;;;;;;10069396;29;20099;-89
2023/08/28 18:21:49;;;;;;;0.63;0.40;;;;;;;;;;10079116;29;20056;-88
2023/08/28 18:26:53;;;;;;;0.40;0.35;;;;;;;;;;10078994;29;20056;-88
2023/08/28 18:31:57;;;;;;;1.20;0.30;;;;;;;;;;10084978;29;20057;-89
2023/08/28 18:37:06;;;;;;;0.70;0.30;;;;;;;;;;10093297;29;20145;-88
2023/08/28 18:42:11;;;;;;;0.60;0.40;;;;;;;;;;10069116;29;20076;-88
2023/08/28 18:47:15;;;;;;;0.50;0.30;;;;;;;;;;10083482;29;20049;-88
2023/08/28 18:52:18;;;;;;;0.30;0.30;;;;;;;;;;10058089;29;20109;-88
2023/08/28 18:57:23;;;;;;;0.70;0.30;;;;;;;;;;10084915;29;20049;-88
2023/08/28 19:02:27;;;;;;;0.60;0.40;;;;;;;;;;10121188;23;20079;-86
2023/08/28 19:07:30;;;;;;;0.40;0.30;;;;;;;;;;10231055;28;20062;-85
2023/08/28 19:12:35;;;;;;;0.82;0.40;;;;;;;;;;10215156;28;20058;-84
2023/08/28 19:17:39;;;;;;;0.60;0.30;;;;;;;;;;10223933;28;20078;-86
2023/08/28 19:22:45;;;;;;;2.03;0.70;;;;;;;;;;10230515;28;20051;-85
2023/08/28 19:27:50;;;;;;;1.33;0.60;;;;;;;;;;10240384;28;20067;-85
2023/08/28 19:32:54;;;;;;;1.23;0.47;;;;;;;;;;10233578;28;20075;-85
2023/08/28 19:37:57;;;;;;;0.45;0.45;;;;;;;;;;10222732;28;20390;-85
2023/08/28 19:43:02;;;;;;;0.65;0.55;;;;;;;;;;10239915;28;20062;-85
2023/08/28 19:48:06;;;;;;;0.50;0.40;;;;;;;;;;10239367;28;20464;-86
2023/08/28 19:53:11;;;;;;;0.57;0.50;;;;;;;;;;10239524;28;20083;-87
2023/08/28 19:58:16;;;;;;;0.60;0.50;;;;;;;;;;10222833;28;20130;-85
2023/08/28 20:03:19;;;;;;;0.60;0.60;;;;;;;;;;10246966;28;20051;-85
2023/08/28 20:08:24;;;;;;;1.13;0.55;;;;;;;;;;10239361;28;20047;-85
2023/08/28 20:13:29;;;;;;;0.38;0.38;;;;;;;;;;10245625;28;20051;-89
2023/08/28 20:18:36;;;;;;;1.20;0.55;;;;;;;;;;10227244;28;20428;-89
2023/08/28 20:23:39;;;;;;;0.80;0.70;;;;;;;;;;10231554;28;20043;-90
2023/08/28 20:28:44;;;;;;;0.65;0.52;;;;;;;;;;10242132;28;20051;-89
2023/08/28 20:33:48;;;;;;;1.23;0.70;;;;;;;;;;10235299;28;20059;-90
2023/08/28 20:38:52;;;;;;;2.13;0.70;;;;;;;;;;10239070;28;20046;-88
2023/08/28 20:43:57;;;;;;;0.82;0.40;;;;;;;;;;10238584;28;20048;-88
2023/08/28 20:49:03;;;;;;;0.70;0.60;;;;;;;;;;10234281;28;20608;-88
2023/08/28 20:54:07;;;;;;;0.40;0.30;;;;;;;;;;10242349;28;20044;-88
2023/08/28 20:59:12;;;;;;;0.40;0.40;;;;;;;;;;10240637;28;20058;-88
2023/08/28 21:04:15;;;;;;;1.15;0.50;;;;;;;;;;10239162;28;20098;-88
2023/08/28 21:09:18;;;;;;;1.42;0.65;;;;;;;;;;10255160;28;20051;-88
2023/08/28 21:14:24;;;;;;;1.05;0.45;;;;;;;;;;10233295;28;20056;-89
2023/08/28 21:19:28;;;;;;;0.90;0.70;;;;;;;;;;10226066;28;20055;-83
2023/08/28 21:24:32;;;;;;;1.50;0.55;;;;;;;;;;10238663;28;20133;-83
2023/08/28 21:29:37;;;;;;;0.50;0.50;;;;;;;;;;10240231;28;20107;-83
2023/08/28 21:34:40;;;;;;;1.65;0.80;;;;;;;;;;10239690;28;20047;-83
2023/08/28 21:39:43;;;;;;;2.63;0.88;;;;;;;;;;10239649;28;20066;-82
2023/08/28 21:44:48;;;;;;;0.52;0.50;;;;;;;;;;10221478;28;20127;-83
2023/08/28 21:49:51;;;;;;;0.65;0.45;;;;;;;;;;10222543;28;20142;-81
2023/08/28 21:55:13;;;;;;;0.45;0.45;;;;;;;;;;10239590;28;20544;-81
2023/08/28 22:00:38;;;;;;;2.42;0.60;;;;;;;;;;10238567;28;20048;-83
2023/08/28 22:06:00;;;;;;;2.55;0.60;;;;;;;;;;10238598;28;20524;-83
2023/08/28 22:11:03;;;;;;;1.02;0.60;;;;;;;;;;10221084;28;20078;-82
2023/08/28 22:16:22;;;;;;;0.93;0.55;;;;;;;;;;10230349;28;20094;-84
2023/08/28 22:21:25;;;;;;;0.50;0.50;;;;;;;;;;10237241;28;20055;-83
2023/08/28 22:26:29;;;;;;;0.57;0.52;;;;;;;;;;10214770;28;20054;-82
2023/08/28 22:31:33;;;;;;;1.45;0.70;;;;;;;;;;10236107;28;20066;-81
2023/08/28 22:36:37;;;;;;;1.08;0.50;;;;;;;;;;10220440;28;20826;-83
2023/08/28 22:41:40;;;;;;;0.63;0.43;;;;;;;;;;10219304;28;20674;-83
2023/08/28 22:46:45;;;;;;;0.73;0.50;;;;;;;;;;10237163;28;20737;-83
2023/08/28 22:51:49;;;;;;;0.50;0.50;;;;;;;;;;10225414;28;20126;-84
2023/08/28 22:56:52;;;;;;;0.70;0.57;;;;;;;;;;10219114;28;20085;-82
2023/08/28 23:01:57;;;;;;;0.70;0.70;;;;;;;;;;10234383;28;20043;-83
2023/08/28 23:07:00;;;;;;;1.08;0.60;;;;;;;;;;10216150;28;20075;-82
2023/08/28 23:12:04;;;;;;;0.65;0.65;;;;;;;;;;10243278;28;20043;-85
2023/08/28 23:17:09;;;;;;;0.52;0.52;;;;;;;;;;10243086;28;20071;-85
2023/08/28 23:22:13;;;;;;;0.93;0.60;;;;;;;;;;10235282;28;20047;-86
2023/08/28 23:27:17;;;;;;;1.10;0.88;;;;;;;;;;10253749;28;20393;-86
2023/08/28 23:32:21;;;;;;;1.88;0.75;;;;;;;;;;10278300;28;20089;-84
2023/08/28 23:37:25;;;;;;;1.10;0.90;;;;;;;;;;10238146;28;20145;-86
2023/08/28 23:42:28;;;;;;;1.13;0.63;;;;;;;;;;10221160;28;20081;-85
2023/08/28 23:47:33;;;;;;;1.58;0.70;;;;;;;;;;10216712;28;20134;-84
2023/08/28 23:52:36;;;;;;;1.15;0.63;;;;;;;;;;10216058;28;20110;-85
2023/08/28 23:57:39;;;;;;;1.15;0.90;;;;;;;;;;10217350;28;20270;-84
